createdAt,value
2022-08-11T00:00:48.383Z,0.00
2022-08-11T00:01:48.703Z,0.00
2022-08-11T00:02:49.083Z,0.00
2022-08-11T00:03:49.293Z,0.00
2022-08-11T00:04:49.594Z,0.00
2022-08-11T00:05:49.916Z,0.00
2022-08-11T00:06:50.223Z,0.00
2022-08-11T00:07:50.537Z,0.00
2022-08-11T00:08:50.850Z,0.00
2022-08-11T00:09:51.165Z,0.00
2022-08-11T00:10:51.466Z,0.00
2022-08-11T00:11:51.727Z,0.00
2022-08-11T00:12:52.058Z,0.00
2022-08-11T00:13:52.369Z,0.00
2022-08-11T00:14:52.676Z,0.00
2022-08-11T00:15:52.986Z,0.00
2022-08-11T00:16:53.317Z,0.00
2022-08-11T00:17:53.626Z,0.00
2022-08-11T00:18:53.931Z,0.00
2022-08-11T00:20:14.326Z,0.00
2022-08-11T00:20:55.531Z,0.00
2022-08-11T00:22:04.116Z,0.00
2022-08-11T00:22:56.100Z,0.00
2022-08-11T00:23:55.431Z,0.00
2022-08-11T00:24:59.965Z,0.00
2022-08-11T00:25:56.942Z,0.00
2022-08-11T00:26:56.194Z,0.00
2022-08-11T00:27:56.510Z,0.00
2022-08-11T00:28:56.812Z,0.00
2022-08-11T00:29:57.129Z,0.00
2022-08-11T00:30:57.432Z,0.00
2022-08-11T00:31:57.753Z,0.00
2022-08-11T00:32:58.066Z,0.00
2022-08-11T00:33:58.375Z,0.00
2022-08-11T00:35:54.680Z,0.00
2022-08-11T00:35:59.967Z,0.00
2022-08-11T00:36:59.229Z,0.00
2022-08-11T00:37:59.537Z,0.00
2022-08-11T00:38:59.868Z,0.00
2022-08-11T00:40:00.326Z,0.00
2022-08-11T00:41:00.416Z,0.00
2022-08-11T00:42:00.738Z,0.00
2022-08-11T00:43:01.040Z,0.00
2022-08-11T00:44:01.349Z,0.00
2022-08-11T00:45:01.669Z,0.00
2022-08-11T00:46:02.048Z,0.00
2022-08-11T00:47:02.250Z,0.00
2022-08-11T00:48:02.569Z,0.00
2022-08-11T00:49:02.949Z,0.00
2022-08-11T00:50:03.130Z,0.00
2022-08-11T00:51:03.431Z,0.00
2022-08-11T00:52:05.825Z,0.00
2022-08-11T00:53:04.068Z,0.00
2022-08-11T00:54:04.380Z,0.00
2022-08-11T00:55:04.691Z,0.00
2022-08-11T00:56:05.011Z,0.00
2022-08-11T00:57:36.093Z,0.00
2022-08-11T00:58:06.619Z,0.00
2022-08-11T00:59:05.862Z,0.00
2022-08-11T01:00:07.145Z,0.00
2022-08-11T01:01:06.441Z,0.00
2022-08-11T01:02:06.643Z,0.00
2022-08-11T01:03:06.944Z,0.00
2022-08-11T01:04:07.265Z,0.00
2022-08-11T01:05:07.562Z,0.00
2022-08-11T01:06:08.206Z,0.00
2022-08-11T01:07:08.225Z,0.00
2022-08-11T01:08:08.529Z,0.00
2022-08-11T01:09:08.828Z,0.00
2022-08-11T01:10:09.139Z,0.00
2022-08-11T01:11:09.471Z,0.00
2022-08-11T01:12:09.787Z,0.00
2022-08-11T01:13:10.101Z,0.00
2022-08-11T01:14:10.402Z,0.00
2022-08-11T01:15:10.709Z,0.00
2022-08-11T01:16:11.011Z,0.00
2022-08-11T01:17:11.340Z,0.00
2022-08-11T01:18:11.609Z,0.00
2022-08-11T01:19:11.902Z,0.00
2022-08-11T01:20:46.043Z,0.00
2022-08-11T01:21:13.488Z,0.00
2022-08-11T01:22:12.742Z,0.00
2022-08-11T01:23:13.032Z,0.00
2022-08-11T01:24:13.391Z,0.00
2022-08-11T01:25:13.697Z,0.00
2022-08-11T01:26:14.007Z,0.00
2022-08-11T01:27:19.056Z,0.00
2022-08-11T01:28:15.608Z,0.00
2022-08-11T01:29:14.843Z,0.00
2022-08-11T01:30:15.150Z,0.00
2022-08-11T01:31:15.455Z,0.00
2022-08-11T01:32:15.785Z,0.00
2022-08-11T01:33:16.093Z,0.00
2022-08-11T01:34:16.408Z,0.00
2022-08-11T01:35:16.717Z,0.00
2022-08-11T01:36:17.022Z,0.00
2022-08-11T01:37:17.347Z,0.00
2022-08-11T01:38:17.655Z,0.00
2022-08-11T01:39:18.488Z,0.00
2022-08-11T01:40:18.307Z,0.00
2022-08-11T01:41:18.622Z,0.00
2022-08-11T01:42:18.946Z,0.00
2022-08-11T01:43:19.239Z,0.00
2022-08-11T01:44:19.543Z,0.00
2022-08-11T01:45:19.864Z,0.00
2022-08-11T01:46:20.186Z,0.00
2022-08-11T01:47:20.504Z,0.00
2022-08-11T01:48:20.754Z,0.00
2022-08-11T01:50:06.896Z,0.00
2022-08-11T01:50:22.333Z,0.00
2022-08-11T01:51:21.577Z,0.00
2022-08-11T01:52:40.025Z,0.00
2022-08-11T01:53:23.185Z,0.00
2022-08-11T01:54:22.433Z,0.00
2022-08-11T01:55:22.733Z,0.00
2022-08-11T01:56:23.043Z,0.00
2022-08-11T01:57:23.366Z,0.00
2022-08-11T01:58:40.644Z,0.00
2022-08-11T01:59:24.967Z,0.00
2022-08-11T02:00:24.205Z,0.00
2022-08-11T02:01:24.607Z,0.00
2022-08-11T02:02:24.849Z,0.00
2022-08-11T02:03:25.156Z,0.00
2022-08-11T02:04:25.484Z,0.00
2022-08-11T02:05:25.778Z,0.00
2022-08-11T02:06:26.096Z,0.00
2022-08-11T02:07:26.409Z,0.00
2022-08-11T02:08:33.160Z,0.00
2022-08-11T02:09:27.998Z,0.00
2022-08-11T02:10:35.219Z,0.00
2022-08-11T02:11:28.588Z,0.00
2022-08-11T02:12:28.010Z,0.00
2022-08-11T02:13:35.375Z,0.00
2022-08-11T02:14:29.432Z,0.00
2022-08-11T02:15:28.665Z,0.00
2022-08-11T02:16:28.993Z,0.00
2022-08-11T02:17:29.311Z,0.00
2022-08-11T02:18:29.641Z,0.00
2022-08-11T02:19:29.944Z,0.00
2022-08-11T02:20:30.255Z,0.00
2022-08-11T02:21:30.563Z,0.00
2022-08-11T02:22:30.908Z,0.00
2022-08-11T02:24:05.578Z,0.00
2022-08-11T02:24:32.507Z,0.00
2022-08-11T02:25:31.734Z,0.00
2022-08-11T02:26:32.053Z,0.00
2022-08-11T02:27:32.368Z,0.00
2022-08-11T02:28:35.818Z,0.00
2022-08-11T02:29:33.956Z,0.00
2022-08-11T02:30:33.197Z,0.00
2022-08-11T02:32:15.409Z,0.00
2022-08-11T02:32:34.897Z,0.00
2022-08-11T02:33:34.089Z,0.00
2022-08-11T02:34:34.413Z,0.00
2022-08-11T02:35:34.712Z,0.00
2022-08-11T02:36:41.921Z,0.00
2022-08-11T02:37:35.345Z,0.00
2022-08-11T02:38:35.802Z,0.00
2022-08-11T02:39:36.021Z,0.00
2022-08-11T02:40:36.211Z,0.00
2022-08-11T02:41:36.520Z,0.00
2022-08-11T02:42:36.840Z,0.00
2022-08-11T02:43:37.139Z,0.00
2022-08-11T02:44:37.433Z,0.00
2022-08-11T02:45:37.749Z,0.00
2022-08-11T02:46:38.061Z,0.00
2022-08-11T02:47:38.394Z,0.00
2022-08-11T02:48:38.683Z,0.00
2022-08-11T02:49:38.989Z,0.00
2022-08-11T02:50:39.317Z,0.00
2022-08-11T02:51:39.623Z,0.00
2022-08-11T02:52:39.946Z,0.00
2022-08-11T02:53:40.264Z,0.00
2022-08-11T02:54:40.578Z,0.00
2022-08-11T02:55:48.960Z,4.00
2022-08-11T02:56:42.185Z,4.00
2022-08-11T02:57:41.433Z,0.00
2022-08-11T02:58:41.770Z,0.00
2022-08-11T02:59:49.769Z,4.00
2022-08-11T03:00:42.332Z,4.00
2022-08-11T03:01:42.731Z,4.00
2022-08-11T03:02:43.007Z,4.00
2022-08-11T03:03:43.232Z,4.00
2022-08-11T03:04:43.441Z,4.00
2022-08-11T03:05:43.781Z,8.00
2022-08-11T03:06:44.132Z,8.00
2022-08-11T03:07:44.343Z,8.00
2022-08-11T03:08:44.696Z,8.00
2022-08-11T03:09:45.044Z,8.00
2022-08-11T03:10:45.264Z,12.00
2022-08-11T03:11:45.573Z,12.00
2022-08-11T03:12:48.053Z,16.00
2022-08-11T03:13:47.253Z,16.00
2022-08-11T03:14:46.540Z,20.00
2022-08-11T03:15:46.787Z,20.00
2022-08-11T03:16:47.038Z,24.00
2022-08-11T03:17:47.266Z,24.00
2022-08-11T03:18:47.492Z,32.00
2022-08-11T03:19:47.826Z,36.00
2022-08-11T03:20:48.036Z,40.00
2022-08-11T03:22:02.985Z,40.00
2022-08-11T03:22:49.737Z,48.00
2022-08-11T03:23:49.010Z,56.00
2022-08-11T03:24:49.381Z,60.00
2022-08-11T03:25:49.599Z,68.00
2022-08-11T03:26:49.949Z,76.00
2022-08-11T03:27:50.304Z,88.00
2022-08-11T03:28:50.647Z,96.00
2022-08-11T03:29:50.869Z,100.00
2022-08-11T03:30:51.119Z,112.00
2022-08-11T03:31:51.366Z,124.00
2022-08-11T03:32:51.631Z,136.00
2022-08-11T03:33:51.895Z,148.00
2022-08-11T03:34:52.183Z,160.00
2022-08-11T03:35:52.451Z,176.00
2022-08-11T03:37:15.714Z,188.00
2022-08-11T03:37:53.931Z,204.00
2022-08-11T03:38:53.232Z,220.00
2022-08-11T03:39:56.680Z,236.00
2022-08-11T03:40:53.814Z,252.00
2022-08-11T03:42:03.116Z,272.00
2022-08-11T03:42:55.337Z,288.00
2022-08-11T03:43:58.269Z,308.00
2022-08-11T03:44:54.884Z,328.00
2022-08-11T03:45:55.147Z,352.00
2022-08-11T03:46:55.415Z,372.00
2022-08-11T03:47:55.918Z,400.00
2022-08-11T03:48:56.003Z,424.00
2022-08-11T03:49:56.247Z,448.00
2022-08-11T03:50:56.507Z,476.00
2022-08-11T03:51:56.746Z,500.00
2022-08-11T03:52:57.023Z,532.00
2022-08-11T03:53:57.275Z,560.00
2022-08-11T03:54:57.588Z,592.00
2022-08-11T03:55:57.807Z,620.00
2022-08-11T03:56:58.229Z,652.00
2022-08-11T03:57:58.497Z,688.00
2022-08-11T03:58:58.736Z,720.00
2022-08-11T03:59:58.990Z,752.00
2022-08-11T04:00:59.248Z,788.00
2022-08-11T04:01:59.675Z,824.00
2022-08-11T04:02:59.811Z,860.00
2022-08-11T04:04:00.085Z,896.00
2022-08-11T04:05:00.336Z,928.00
2022-08-11T04:06:00.569Z,968.00
2022-08-11T04:07:00.936Z,1004.00
2022-08-11T04:08:01.187Z,1044.00
2022-08-11T04:09:01.472Z,1080.00
2022-08-11T04:10:01.730Z,1116.00
2022-08-11T04:11:02.001Z,1152.00
2022-08-11T04:12:02.290Z,1192.00
2022-08-11T04:13:02.560Z,1232.00
2022-08-11T04:14:02.803Z,1268.00
2022-08-11T04:15:03.074Z,1304.00
2022-08-11T04:16:12.009Z,1344.00
2022-08-11T04:17:04.672Z,1380.00
2022-08-11T04:18:04.001Z,1420.00
2022-08-11T04:19:04.255Z,1456.00
2022-08-11T04:20:04.532Z,1496.00
2022-08-11T04:21:04.831Z,1536.00
2022-08-11T04:22:05.135Z,1576.00
2022-08-11T04:23:05.377Z,1620.00
2022-08-11T04:24:36.542Z,1660.00
2022-08-11T04:25:06.983Z,1704.00
2022-08-11T04:26:16.122Z,1744.00
2022-08-11T04:27:08.209Z,1788.00
2022-08-11T04:28:07.887Z,1828.00
2022-08-11T04:29:09.589Z,1872.00
2022-08-11T04:30:09.018Z,1912.00
2022-08-11T04:31:07.768Z,1952.00
2022-08-11T04:32:08.070Z,1996.00
2022-08-11T04:33:08.349Z,2036.00
2022-08-11T04:34:08.628Z,2076.00
2022-08-11T04:35:08.968Z,2120.00
2022-08-11T04:36:09.248Z,2168.00
2022-08-11T04:37:09.527Z,2216.00
2022-08-11T04:38:09.780Z,2272.00
2022-08-11T04:39:10.056Z,2328.00
2022-08-11T04:40:10.318Z,2388.00
2022-08-11T04:41:10.580Z,2448.00
2022-08-11T04:42:10.942Z,2496.00
2022-08-11T04:43:11.202Z,2548.00
2022-08-11T04:44:11.471Z,2608.00
2022-08-11T04:45:11.715Z,2668.00
2022-08-11T04:46:11.986Z,2716.00
2022-08-11T04:47:12.256Z,2720.00
2022-08-11T04:48:12.536Z,2696.00
2022-08-11T04:49:12.785Z,2700.00
2022-08-11T04:50:14.137Z,2732.00
2022-08-11T04:51:16.881Z,2764.00
2022-08-11T04:52:13.774Z,2796.00
2022-08-11T04:53:14.033Z,2836.00
2022-08-11T04:54:14.526Z,2884.00
2022-08-11T04:55:14.516Z,2948.00
2022-08-11T04:56:14.785Z,3024.00
2022-08-11T04:57:15.135Z,3108.00
2022-08-11T04:58:15.276Z,3200.00
2022-08-11T04:59:15.529Z,3296.00
2022-08-11T05:00:15.789Z,3384.00
2022-08-11T05:01:16.124Z,3468.00
2022-08-11T05:02:16.910Z,3564.00
2022-08-11T05:03:16.651Z,3680.00
2022-08-11T05:04:16.890Z,3816.00
2022-08-11T05:05:17.149Z,3984.00
2022-08-11T05:06:17.438Z,4192.00
2022-08-11T05:07:17.708Z,4452.00
2022-08-11T05:08:21.882Z,4784.00
2022-08-11T05:09:19.292Z,5224.00
2022-08-11T05:10:18.592Z,5720.00
2022-08-11T05:11:18.839Z,6184.00
2022-08-11T05:12:19.101Z,6712.00
2022-08-11T05:13:19.362Z,7620.00
2022-08-11T05:14:19.653Z,15392.00
2022-08-11T05:15:19.961Z,27104.00
2022-08-11T05:16:20.475Z,32544.00
2022-08-11T05:17:20.564Z,34848.00
2022-08-11T05:18:20.743Z,36768.00
2022-08-11T05:19:21.152Z,35456.00
2022-08-11T05:20:21.373Z,34112.00
2022-08-11T05:21:21.697Z,34528.00
2022-08-11T05:22:22.037Z,36576.00
2022-08-11T05:23:22.358Z,37888.00
2022-08-11T05:24:22.637Z,41664.00
2022-08-11T05:26:08.864Z,42688.00
2022-08-11T05:26:47.473Z,40384.00
2022-08-11T05:27:24.377Z,36256.00
2022-08-11T05:28:23.731Z,36672.00
2022-08-11T05:29:24.084Z,39776.00
2022-08-11T05:30:24.379Z,44864.00
2022-08-11T05:31:24.676Z,49952.00
2022-08-11T05:32:24.983Z,51296.00
2022-08-11T05:33:25.301Z,54624.00
2022-08-11T05:34:25.614Z,54496.00
2022-08-11T05:36:00.537Z,52096.00
2022-08-11T05:36:27.132Z,48992.00
2022-08-11T05:37:27.659Z,46240.00
2022-08-11T05:38:26.726Z,43264.00
2022-08-11T05:39:33.837Z,44704.00
2022-08-11T05:40:28.241Z,44800.00
2022-08-11T05:41:27.605Z,44800.00
2022-08-11T05:42:30.306Z,46624.00
2022-08-11T05:43:28.144Z,46912.00
2022-08-11T05:44:28.472Z,46816.00
2022-08-11T05:45:28.745Z,44320.00
2022-08-11T05:46:30.034Z,39456.00
2022-08-11T05:47:29.249Z,41728.00
2022-08-11T05:48:29.561Z,39904.00
2022-08-11T05:49:31.876Z,42496.00
2022-08-11T05:50:32.777Z,43776.00
2022-08-11T05:51:30.821Z,41984.00
2022-08-11T05:52:31.890Z,44672.00
2022-08-11T05:53:30.960Z,43840.00
2022-08-11T05:54:32.318Z,42336.00
2022-08-11T05:55:31.691Z,41632.00
2022-08-11T05:56:32.023Z,40768.00
2022-08-11T05:57:50.461Z,41056.00
2022-08-11T05:58:35.863Z,39648.00
2022-08-11T05:59:33.765Z,39552.00
2022-08-11T06:00:33.082Z,37984.00
2022-08-11T06:01:33.477Z,38400.00
2022-08-11T06:02:33.614Z,37088.00
2022-08-11T06:03:33.864Z,37120.00
2022-08-11T06:04:34.128Z,39936.00
2022-08-11T06:05:38.560Z,42016.00
2022-08-11T06:06:35.766Z,40288.00
2022-08-11T06:07:48.521Z,38048.00
2022-08-11T06:08:36.307Z,36128.00
2022-08-11T06:09:35.616Z,33920.00
2022-08-11T06:10:35.899Z,34080.00
2022-08-11T06:11:43.735Z,34368.00
2022-08-11T06:12:37.617Z,34336.00
2022-08-11T06:13:36.731Z,35712.00
2022-08-11T06:14:37.000Z,36160.00
2022-08-11T06:15:37.271Z,38592.00
2022-08-11T06:16:37.553Z,37312.00
2022-08-11T06:17:38.416Z,36992.00
2022-08-11T06:18:38.182Z,27680.00
2022-08-11T06:19:38.402Z,18464.00
2022-08-11T06:20:38.707Z,13536.00
2022-08-11T06:21:39.013Z,11896.00
2022-08-11T06:22:39.505Z,11768.00
2022-08-11T06:23:39.628Z,11824.00
2022-08-11T06:24:39.766Z,12064.00
2022-08-11T06:25:40.037Z,14816.00
2022-08-11T06:26:55.200Z,27232.00
2022-08-11T06:27:41.651Z,31520.00
2022-08-11T06:28:41.006Z,33472.00
2022-08-11T06:29:47.822Z,35072.00
2022-08-11T06:30:43.399Z,35136.00
2022-08-11T06:33:02.642Z,39968.00
2022-08-11T06:34:02.544Z,37120.00
2022-08-11T06:35:03.006Z,28960.00
2022-08-11T06:36:02.858Z,23456.00
2022-08-11T06:37:04.801Z,21344.00
2022-08-11T06:38:03.409Z,21472.00
2022-08-11T06:39:03.713Z,20736.00
2022-08-11T06:40:04.016Z,21888.00
2022-08-11T06:41:04.389Z,24768.00
2022-08-11T06:42:04.609Z,22432.00
2022-08-11T06:43:04.904Z,18880.00
2022-08-11T06:44:05.633Z,17760.00
2022-08-11T06:45:05.540Z,18240.00
2022-08-11T06:46:05.805Z,18816.00
2022-08-11T06:47:06.084Z,13784.00
2022-08-11T06:48:06.331Z,7296.00
2022-08-11T06:49:06.613Z,6620.00
2022-08-11T06:50:06.895Z,6128.00
2022-08-11T06:51:07.148Z,5632.00
2022-08-11T06:52:07.404Z,5160.00
2022-08-11T06:53:08.755Z,4696.00
2022-08-11T06:54:08.066Z,4256.00
2022-08-11T06:55:12.610Z,3912.00
2022-08-11T06:56:09.664Z,3760.00
2022-08-11T06:58:10.316Z,3724.00
2022-08-11T06:59:09.555Z,3712.00
2022-08-11T07:00:09.888Z,3704.00
2022-08-11T07:01:10.177Z,3692.00
2022-08-11T07:02:10.431Z,3688.00
2022-08-11T07:03:10.669Z,3676.00
2022-08-11T07:04:10.910Z,3668.00
2022-08-11T07:05:11.180Z,3660.00
2022-08-11T07:06:11.431Z,3652.00
2022-08-11T07:07:11.682Z,3648.00
2022-08-11T07:08:35.271Z,3632.00
2022-08-11T07:09:13.285Z,3624.00
2022-08-11T07:10:12.612Z,3612.00
2022-08-11T07:11:12.886Z,3600.00
2022-08-11T07:12:13.143Z,3592.00
2022-08-11T07:13:44.382Z,3580.00
2022-08-11T07:14:14.754Z,3572.00
2022-08-11T07:15:14.074Z,3564.00
2022-08-11T07:16:14.349Z,3556.00
2022-08-11T07:17:14.608Z,3556.00
2022-08-11T07:18:14.858Z,3556.00
2022-08-11T07:19:16.547Z,3552.00
2022-08-11T07:20:15.428Z,3552.00
2022-08-11T07:22:00.191Z,3548.00
2022-08-11T07:22:17.008Z,3544.00
2022-08-11T07:23:16.318Z,3540.00
2022-08-11T07:24:16.596Z,3536.00
2022-08-11T07:25:16.869Z,3540.00
2022-08-11T07:26:17.171Z,3532.00
2022-08-11T07:27:17.480Z,3540.00
2022-08-11T07:28:17.704Z,3544.00
2022-08-11T07:29:17.961Z,3548.00
2022-08-11T07:30:18.222Z,3544.00
2022-08-11T07:31:18.477Z,3544.00
2022-08-11T07:32:18.731Z,3548.00
2022-08-11T07:34:06.342Z,3540.00
2022-08-11T07:34:20.333Z,3536.00
2022-08-11T07:35:19.667Z,3532.00
2022-08-11T07:36:19.935Z,3528.00
2022-08-11T07:37:20.193Z,3524.00
2022-08-11T07:38:22.817Z,3524.00
2022-08-11T07:39:20.746Z,3528.00
2022-08-11T07:40:21.031Z,3524.00
2022-08-11T07:41:21.296Z,3512.00
2022-08-11T07:42:21.563Z,3508.00
2022-08-11T07:43:21.797Z,3508.00
2022-08-11T07:44:22.056Z,3500.00
2022-08-11T07:45:22.319Z,3496.00
2022-08-11T07:46:22.580Z,3496.00
2022-08-11T07:47:22.841Z,3512.00
2022-08-11T07:48:23.118Z,3500.00
2022-08-11T07:49:23.391Z,3496.00
2022-08-11T07:50:23.641Z,3500.00
2022-08-11T07:51:23.893Z,3484.00
2022-08-11T07:52:24.159Z,3480.00
2022-08-11T07:53:24.462Z,3472.00
2022-08-11T07:54:24.723Z,3468.00
2022-08-11T07:55:49.149Z,3456.00
2022-08-11T07:56:37.835Z,3452.00
2022-08-11T07:58:13.888Z,3436.00
2022-08-11T07:58:26.986Z,3420.00
2022-08-11T07:59:59.928Z,3412.00
2022-08-11T08:00:29.839Z,3404.00
2022-08-11T08:01:26.613Z,3392.00
2022-08-11T08:02:26.894Z,3376.00
2022-08-11T08:03:27.214Z,3372.00
2022-08-11T08:04:27.479Z,3360.00
2022-08-11T08:05:27.727Z,3352.00
2022-08-11T08:06:36.471Z,3344.00
2022-08-11T08:07:29.320Z,3332.00
2022-08-11T08:08:28.599Z,3328.00
2022-08-11T08:09:28.873Z,3324.00
2022-08-11T08:10:29.126Z,3324.00
2022-08-11T08:11:29.390Z,3320.00
2022-08-11T08:12:29.694Z,3316.00
2022-08-11T08:13:29.940Z,3312.00
2022-08-11T08:14:30.201Z,3312.00
2022-08-11T08:15:30.463Z,3296.00
2022-08-11T08:16:30.723Z,3296.00
2022-08-11T08:17:30.982Z,3288.00
2022-08-11T08:18:31.240Z,3284.00
2022-08-11T08:19:31.501Z,3284.00
2022-08-11T08:20:31.765Z,3288.00
2022-08-11T08:21:32.006Z,3276.00
2022-08-11T08:22:38.454Z,3268.00
2022-08-11T08:23:34.163Z,3276.00
2022-08-11T08:24:32.836Z,3260.00
2022-08-11T08:25:33.094Z,3260.00
2022-08-11T08:26:33.351Z,3256.00
2022-08-11T08:27:33.600Z,3256.00
2022-08-11T08:28:33.859Z,3260.00
2022-08-11T08:29:34.127Z,3252.00
2022-08-11T08:30:34.406Z,3244.00
2022-08-11T08:31:34.672Z,3232.00
2022-08-11T08:32:34.937Z,3244.00
2022-08-11T08:33:35.208Z,3232.00
2022-08-11T08:34:35.509Z,3220.00
2022-08-11T08:35:35.749Z,3200.00
2022-08-11T08:36:37.092Z,3200.00
2022-08-11T08:37:46.134Z,3196.00
2022-08-11T08:38:37.828Z,3184.00
2022-08-11T08:39:37.079Z,3180.00
2022-08-11T08:40:37.322Z,3192.00
2022-08-11T08:41:37.593Z,3164.00
2022-08-11T08:42:40.664Z,3176.00
2022-08-11T08:43:49.387Z,3168.00
2022-08-11T08:44:41.390Z,3144.00
2022-08-11T08:45:38.605Z,3124.00
2022-08-11T08:46:38.914Z,3116.00
2022-08-11T08:47:41.933Z,3112.00
2022-08-11T08:48:39.396Z,3104.00
2022-08-11T08:49:40.202Z,3096.00
2022-08-11T08:50:39.989Z,3092.00
2022-08-11T08:52:01.516Z,3084.00
2022-08-11T08:52:43.932Z,3088.00
2022-08-11T08:53:52.402Z,3080.00
2022-08-11T08:54:42.187Z,3080.00
2022-08-11T08:55:45.478Z,3084.00
2022-08-11T08:56:41.838Z,3092.00
2022-08-11T08:57:42.218Z,3076.00
2022-08-11T08:58:42.341Z,3072.00
2022-08-11T08:59:51.775Z,3064.00
2022-08-11T09:00:42.830Z,3072.00
2022-08-11T09:01:43.123Z,3072.00
2022-08-11T09:02:43.354Z,3060.00
2022-08-11T09:04:05.053Z,3032.00
2022-08-11T09:04:44.906Z,3016.00
2022-08-11T09:05:44.196Z,2992.00
2022-08-11T09:06:44.428Z,2984.00
2022-08-11T09:07:45.747Z,2960.00
2022-08-11T09:08:45.021Z,2948.00
2022-08-11T09:09:45.258Z,2936.00
2022-08-11T09:10:45.499Z,2920.00
2022-08-11T09:11:45.720Z,2916.00
2022-08-11T09:12:46.302Z,2908.00
2022-08-11T09:13:46.420Z,2896.00
2022-08-11T09:14:47.805Z,2888.00
2022-08-11T09:15:46.961Z,2868.00
2022-08-11T09:16:47.226Z,2860.00
2022-08-11T09:17:47.442Z,2844.00
2022-08-11T09:18:49.425Z,2840.00
2022-08-11T09:19:49.496Z,2844.00
2022-08-11T09:20:49.486Z,2828.00
2022-08-11T09:21:49.871Z,2820.00
2022-08-11T09:22:57.418Z,2820.00
2022-08-11T09:24:08.756Z,2804.00
2022-08-11T09:24:51.086Z,2804.00
2022-08-11T09:25:49.876Z,2808.00
2022-08-11T09:26:50.139Z,2800.00
2022-08-11T09:27:50.751Z,2784.00
2022-08-11T09:28:50.643Z,2780.00
2022-08-11T09:29:50.870Z,2776.00
2022-08-11T09:30:51.110Z,2768.00
2022-08-11T09:31:51.339Z,2772.00
2022-08-11T09:32:51.601Z,2784.00
2022-08-11T09:33:51.977Z,2796.00
2022-08-11T09:34:52.137Z,2764.00
2022-08-11T09:35:52.403Z,2764.00
2022-08-11T09:36:52.642Z,2768.00
2022-08-11T09:37:55.706Z,2784.00
2022-08-11T09:38:53.499Z,2800.00
2022-08-11T09:39:53.545Z,2776.00
2022-08-11T09:40:56.319Z,2780.00
2022-08-11T09:42:23.617Z,2736.00
2022-08-11T09:42:55.437Z,2760.00
2022-08-11T09:43:54.725Z,2788.00
2022-08-11T09:44:55.005Z,2760.00
2022-08-11T09:45:55.280Z,2664.00
2022-08-11T09:46:55.567Z,2732.00
2022-08-11T09:47:55.838Z,2756.00
2022-08-11T09:48:56.153Z,2768.00
2022-08-11T09:49:56.399Z,2768.00
2022-08-11T09:50:56.671Z,2780.00
2022-08-11T09:52:02.288Z,2760.00
2022-08-11T09:53:37.331Z,2752.00
2022-08-11T09:54:03.454Z,2724.00
2022-08-11T09:54:58.799Z,2716.00
2022-08-11T09:55:58.157Z,2704.00
2022-08-11T09:57:02.037Z,2724.00
2022-08-11T09:57:59.693Z,2720.00
2022-08-11T09:58:58.993Z,2724.00
2022-08-11T10:00:12.688Z,2724.00
2022-08-11T10:01:00.635Z,2724.00
2022-08-11T10:01:59.795Z,2720.00
2022-08-11T10:03:00.026Z,2708.00
2022-08-11T10:04:00.279Z,2712.00
2022-08-11T10:05:00.514Z,2716.00
2022-08-11T10:06:05.837Z,2728.00
2022-08-11T10:07:04.290Z,2732.00
2022-08-11T10:08:01.463Z,2700.00
2022-08-11T10:09:01.721Z,2692.00
2022-08-11T10:10:01.960Z,2696.00
2022-08-11T10:11:02.187Z,2700.00
2022-08-11T10:12:02.421Z,2688.00
2022-08-11T10:13:03.610Z,2684.00
2022-08-11T10:14:31.040Z,2680.00
2022-08-11T10:15:04.223Z,2664.00
2022-08-11T10:16:16.252Z,2660.00
2022-08-11T10:17:04.813Z,2652.00
2022-08-11T10:18:04.116Z,2632.00
2022-08-11T10:19:04.351Z,2628.00
2022-08-11T10:20:06.078Z,2616.00
2022-08-11T10:21:04.903Z,2580.00
2022-08-11T10:22:05.154Z,2592.00
2022-08-11T10:23:05.386Z,2632.00
2022-08-11T10:24:06.170Z,2620.00
2022-08-11T10:25:05.983Z,2616.00
2022-08-11T10:26:06.216Z,2616.00
2022-08-11T10:27:06.471Z,2640.00
2022-08-11T10:28:28.238Z,2620.00
2022-08-11T10:29:13.520Z,2608.00
2022-08-11T10:30:08.256Z,2620.00
2022-08-11T10:31:12.501Z,2624.00
2022-08-11T10:32:08.900Z,2636.00
2022-08-11T10:33:08.226Z,2640.00
2022-08-11T10:34:08.471Z,2620.00
2022-08-11T10:35:08.743Z,2624.00
2022-08-11T10:36:16.440Z,2644.00
2022-08-11T10:37:15.162Z,2652.00
2022-08-11T10:38:10.567Z,2664.00
2022-08-11T10:39:09.882Z,2656.00
2022-08-11T10:40:10.124Z,2648.00
2022-08-11T10:41:11.262Z,2632.00
2022-08-11T10:42:20.859Z,2624.00
2022-08-11T10:43:11.984Z,2604.00
2022-08-11T10:44:11.362Z,2572.00
2022-08-11T10:45:11.573Z,2544.00
2022-08-11T10:46:11.794Z,2512.00
2022-08-11T10:47:12.147Z,2532.00
2022-08-11T10:48:15.478Z,2544.00
2022-08-11T10:49:12.635Z,2552.00
2022-08-11T10:50:12.889Z,2556.00
2022-08-11T10:51:13.141Z,2568.00
2022-08-11T10:52:13.395Z,2600.00
2022-08-11T10:53:13.602Z,2596.00
2022-08-11T10:54:13.878Z,2568.00
2022-08-11T10:55:14.160Z,2556.00
2022-08-11T10:56:14.390Z,2564.00
2022-08-11T10:57:14.631Z,2572.00
2022-08-11T10:58:14.851Z,2672.00
2022-08-11T10:59:15.481Z,2636.00
2022-08-11T11:00:15.432Z,2608.00
2022-08-11T11:01:15.698Z,2612.00
2022-08-11T11:02:15.952Z,2640.00
2022-08-11T11:03:23.113Z,2680.00
2022-08-11T11:04:17.513Z,2732.00
2022-08-11T11:05:16.796Z,2796.00
2022-08-11T11:06:29.442Z,2856.00
2022-08-11T11:07:18.416Z,2832.00
2022-08-11T11:08:17.586Z,2764.00
2022-08-11T11:09:17.824Z,2740.00
2022-08-11T11:10:18.058Z,2776.00
2022-08-11T11:11:18.567Z,2844.00
2022-08-11T11:12:18.628Z,2912.00
2022-08-11T11:13:18.886Z,3012.00
2022-08-11T11:14:19.127Z,3132.00
2022-08-11T11:15:19.398Z,3200.00
2022-08-11T11:16:19.639Z,3192.00
2022-08-11T11:17:19.884Z,3136.00
2022-08-11T11:18:20.137Z,3100.00
2022-08-11T11:19:20.368Z,3056.00
2022-08-11T11:20:36.918Z,2976.00
2022-08-11T11:21:22.045Z,2936.00
2022-08-11T11:22:21.321Z,2884.00
2022-08-11T11:23:21.579Z,2772.00
2022-08-11T11:24:21.820Z,2732.00
2022-08-11T11:25:22.065Z,2712.00
2022-08-11T11:26:27.591Z,2664.00
2022-08-11T11:27:23.535Z,2584.00
2022-08-11T11:28:22.853Z,2504.00
2022-08-11T11:29:23.100Z,2448.00
2022-08-11T11:30:23.326Z,2420.00
2022-08-11T11:31:23.585Z,2372.00
2022-08-11T11:32:23.841Z,2336.00
2022-08-11T11:33:24.088Z,2344.00
2022-08-11T11:34:24.328Z,2356.00
2022-08-11T11:35:24.560Z,2352.00
2022-08-11T11:36:24.800Z,2380.00
2022-08-11T11:37:25.030Z,2384.00
2022-08-11T11:38:25.289Z,2404.00
2022-08-11T11:39:25.626Z,2432.00
2022-08-11T11:40:28.698Z,2448.00
2022-08-11T11:41:27.202Z,2404.00
2022-08-11T11:42:26.490Z,2372.00
2022-08-11T11:43:26.752Z,2368.00
2022-08-11T11:44:27.001Z,2348.00
2022-08-11T11:45:27.265Z,2376.00
2022-08-11T11:46:30.182Z,2384.00
2022-08-11T11:47:27.873Z,2368.00
2022-08-11T11:48:28.123Z,2348.00
2022-08-11T11:49:28.397Z,2356.00
2022-08-11T11:50:32.892Z,2292.00
2022-08-11T11:51:28.946Z,2368.00
2022-08-11T11:52:29.249Z,2384.00
2022-08-11T11:53:29.518Z,2376.00
2022-08-11T11:54:29.775Z,2376.00
2022-08-11T11:55:30.045Z,2388.00
2022-08-11T11:56:30.296Z,2392.00
2022-08-11T11:57:30.698Z,2416.00
2022-08-11T11:58:30.999Z,2424.00
2022-08-11T11:59:31.229Z,2420.00
2022-08-11T12:00:33.539Z,2436.00
2022-08-11T12:01:31.849Z,2412.00
2022-08-11T12:02:32.100Z,2396.00
2022-08-11T12:03:32.583Z,2388.00
2022-08-11T12:04:32.674Z,2372.00
2022-08-11T12:05:32.916Z,2348.00
2022-08-11T12:06:33.171Z,2276.00
2022-08-11T12:07:33.444Z,2288.00
2022-08-11T12:08:33.743Z,2308.00
2022-08-11T12:09:33.974Z,2308.00
2022-08-11T12:10:34.223Z,2296.00
2022-08-11T12:11:34.456Z,2312.00
2022-08-11T12:12:34.727Z,2288.00
2022-08-11T12:13:34.971Z,2276.00
2022-08-11T12:14:35.257Z,2264.00
2022-08-11T12:16:31.897Z,2252.00
2022-08-11T12:16:36.967Z,2260.00
2022-08-11T12:17:36.178Z,2240.00
2022-08-11T12:18:36.419Z,2228.00
2022-08-11T12:19:36.658Z,2228.00
2022-08-11T12:20:36.959Z,2212.00
2022-08-11T12:21:37.238Z,2192.00
2022-08-11T12:22:37.492Z,2180.00
2022-08-11T12:23:37.700Z,2168.00
2022-08-11T12:24:37.931Z,2168.00
2022-08-11T12:25:38.162Z,2160.00
2022-08-11T12:26:38.417Z,2160.00
2022-08-11T12:27:39.030Z,2156.00
2022-08-11T12:28:38.906Z,2152.00